sensor_id;sensor_type;location;lat;lon;timestamp;temperature;humidity
17968;DHT22;9109;48.050;11.696;2023-02-01T04:48:14;3.10;99.90
17968;DHT22;9109;48.050;11.696;2023-02-01T04:51:16;3.10;99.90
17968;DHT22;9109;48.050;11.696;2023-02-01T04:54:18;3.10;99.90
17968;DHT22;9109;48.050;11.696;2023-02-01T04:57:20;3.10;99.90
17968;DHT22;9109;48.050;11.696;2023-02-01T05:00:24;3.10;99.90
17968;DHT22;9109;48.050;11.696;2023-02-01T05:03:29;3.10;99.90
17968;DHT22;9109;48.050;11.696;2023-02-01T05:06:35;3.10;99.90
17968;DHT22;9109;48.050;11.696;2023-02-01T05:09:38;3.10;99.90
17968;DHT22;9109;48.050;11.696;2023-02-01T05:12:41;3.10;99.90
17968;DHT22;9109;48.050;11.696;2023-02-01T05:16:01;3.20;99.90
17968;DHT22;9109;48.050;11.696;2023-02-01T05:19:09;3.10;99.90
17968;DHT22;9109;48.050;11.696;2023-02-01T05:22:14;3.10;99.90
17968;DHT22;9109;48.050;11.696;2023-02-01T05:25:16;3.00;99.90
17968;DHT22;9109;48.050;11.696;2023-02-01T05:28:40;3.10;99.90
17968;DHT22;9109;48.050;11.696;2023-02-01T05:31:44;3.10;99.90
17968;DHT22;9109;48.050;11.696;2023-02-01T05:34:50;3.10;99.90
17968;DHT22;9109;48.050;11.696;2023-02-01T05:37:52;3.10;99.90
17968;DHT22;9109;48.050;11.696;2023-02-01T05:40:54;3.10;99.90
17968;DHT22;9109;48.050;11.696;2023-02-01T05:43:57;3.10;99.90
17968;DHT22;9109;48.050;11.696;2023-02-01T05:46:59;3.10;99.90
17968;DHT22;9109;48.050;11.696;2023-02-01T05:50:05;3.10;99.90
17968;DHT22;9109;48.050;11.696;2023-02-01T05:53:07;3.00;99.90
17968;DHT22;9109;48.050;11.696;2023-02-01T05:56:10;3.00;99.90
17968;DHT22;9109;48.050;11.696;2023-02-01T05:59:12;3.00;99.90
17968;DHT22;9109;48.050;11.696;2023-02-01T06:02:15;3.00;99.90
17968;DHT22;9109;48.050;11.696;2023-02-01T06:05:19;3.00;99.90
17968;DHT22;9109;48.050;11.696;2023-02-01T06:08:21;3.00;99.90
17968;DHT22;9109;48.050;11.696;2023-02-01T06:11:24;3.00;99.90
17968;DHT22;9109;48.050;11.696;2023-02-01T06:14:27;2.90;99.90
17968;DHT22;9109;48.050;11.696;2023-02-01T06:17:29;3.00;99.90
17968;DHT22;9109;48.050;11.696;2023-02-01T06:20:34;3.00;99.90
17968;DHT22;9109;48.050;11.696;2023-02-01T06:23:37;3.00;99.90
17968;DHT22;9109;48.050;11.696;2023-02-01T06:26:39;3.00;99.90
17968;DHT22;9109;48.050;11.696;2023-02-01T06:29:43;3.00;99.90
17968;DHT22;9109;48.050;11.696;2023-02-01T06:32:49;3.00;99.90
17968;DHT22;9109;48.050;11.696;2023-02-01T06:35:59;3.00;99.90
17968;DHT22;9109;48.050;11.696;2023-02-01T06:39:01;3.00;99.90
17968;DHT22;9109;48.050;11.696;2023-02-01T06:42:03;3.00;99.90
17968;DHT22;9109;48.050;11.696;2023-02-01T06:45:06;3.00;99.90
17968;DHT22;9109;48.050;11.696;2023-02-01T06:48:08;3.00;99.90
17968;DHT22;9109;48.050;11.696;2023-02-01T06:51:21;3.00;99.90
17968;DHT22;9109;48.050;11.696;2023-02-01T06:54:23;3.00;99.90
17968;DHT22;9109;48.050;11.696;2023-02-01T06:57:25;3.00;99.90
17968;DHT22;9109;48.050;11.696;2023-02-01T07:00:33;3.00;99.90
17968;DHT22;9109;48.050;11.696;2023-02-01T07:03:37;3.10;99.90
17968;DHT22;9109;48.050;11.696;2023-02-01T07:06:40;3.10;99.90
17968;DHT22;9109;48.050;11.696;2023-02-01T07:09:42;3.10;99.90
17968;DHT22;9109;48.050;11.696;2023-02-01T07:12:44;3.10;99.90
17968;DHT22;9109;48.050;11.696;2023-02-01T07:15:46;3.10;99.90
17968;DHT22;9109;48.050;11.696;2023-02-01T07:18:50;3.00;99.90
17968;DHT22;9109;48.050;11.696;2023-02-01T07:21:54;3.00;99.90
17968;DHT22;9109;48.050;11.696;2023-02-01T07:24:55;3.10;99.90
17968;DHT22;9109;48.050;11.696;2023-02-01T07:27:57;3.10;99.90
17968;DHT22;9109;48.050;11.696;2023-02-01T07:31:02;3.10;99.90
17968;DHT22;9109;48.050;11.696;2023-02-01T07:34:04;3.20;99.90
17968;DHT22;9109;48.050;11.696;2023-02-01T07:37:08;3.10;99.90
17968;DHT22;9109;48.050;11.696;2023-02-01T07:40:11;3.00;99.90
17968;DHT22;9109;48.050;11.696;2023-02-01T07:43:13;3.20;99.90
17968;DHT22;9109;48.050;11.696;2023-02-01T07:46:15;3.20;99.90
17968;DHT22;9109;48.050;11.696;2023-02-01T07:49:17;3.10;99.90
17968;DHT22;9109;48.050;11.696;2023-02-01T07:52:21;3.20;99.90
17968;DHT22;9109;48.050;11.696;2023-02-01T07:55:23;3.30;99.90
17968;DHT22;9109;48.050;11.696;2023-02-01T07:58:26;3.30;99.90
17968;DHT22;9109;48.050;11.696;2023-02-01T08:01:29;3.20;99.90
17968;DHT22;9109;48.050;11.696;2023-02-01T08:04:31;3.20;99.90
17968;DHT22;9109;48.050;11.696;2023-02-01T08:07:34;3.20;99.90
17968;DHT22;9109;48.050;11.696;2023-02-01T08:10:36;3.30;99.90
17968;DHT22;9109;48.050;11.696;2023-02-01T08:13:38;3.30;99.90
17968;DHT22;9109;48.050;11.696;2023-02-01T08:16:40;3.30;99.90
17968;DHT22;9109;48.050;11.696;2023-02-01T08:19:42;3.30;99.90
17968;DHT22;9109;48.050;11.696;2023-02-01T08:22:45;3.40;99.90
17968;DHT22;9109;48.050;11.696;2023-02-01T08:25:48;3.40;99.90
17968;DHT22;9109;48.050;11.696;2023-02-01T08:28:52;3.40;99.90
17968;DHT22;9109;48.050;11.696;2023-02-01T08:31:55;3.30;99.90
17968;DHT22;9109;48.050;11.696;2023-02-01T08:34:56;3.40;99.90
17968;DHT22;9109;48.050;11.696;2023-02-01T08:38:00;3.40;99.90
17968;DHT22;9109;48.050;11.696;2023-02-01T08:41:05;3.50;99.90
17968;DHT22;9109;48.050;11.696;2023-02-01T08:44:07;3.40;99.90
17968;DHT22;9109;48.050;11.696;2023-02-01T08:47:09;3.40;99.90
17968;DHT22;9109;48.050;11.696;2023-02-01T08:50:12;3.40;99.90
17968;DHT22;9109;48.050;11.696;2023-02-01T08:53:18;3.40;99.90
17968;DHT22;9109;48.050;11.696;2023-02-01T08:56:27;3.40;99.90
17968;DHT22;9109;48.050;11.696;2023-02-01T08:59:29;3.50;99.90
17968;DHT22;9109;48.050;11.696;2023-02-01T09:02:31;3.50;99.90
17968;DHT22;9109;48.050;11.696;2023-02-01T09:05:33;3.60;99.90
17968;DHT22;9109;48.050;11.696;2023-02-01T09:08:37;3.60;99.90
17968;DHT22;9109;48.050;11.696;2023-02-01T09:11:39;3.60;99.90
17968;DHT22;9109;48.050;11.696;2023-02-01T09:14:41;3.70;99.90
17968;DHT22;9109;48.050;11.696;2023-02-01T09:17:42;3.70;99.90
17968;DHT22;9109;48.050;11.696;2023-02-01T09:20:45;3.70;99.90
17968;DHT22;9109;48.050;11.696;2023-02-01T09:23:48;3.70;99.90
17968;DHT22;9109;48.050;11.696;2023-02-01T09:26:51;3.70;99.90
17968;DHT22;9109;48.050;11.696;2023-02-01T09:29:53;3.80;99.90
17968;DHT22;9109;48.050;11.696;2023-02-01T09:32:55;3.80;99.90
17968;DHT22;9109;48.050;11.696;2023-02-01T09:35:58;3.90;99.90
17968;DHT22;9109;48.050;11.696;2023-02-01T09:39:02;4.00;99.90
17968;DHT22;9109;48.050;11.696;2023-02-01T09:42:15;4.00;99.90
17968;DHT22;9109;48.050;11.696;2023-02-01T09:45:22;4.10;99.90
17968;DHT22;9109;48.050;11.696;2023-02-01T09:48:30;4.10;99.90
17968;DHT22;9109;48.050;11.696;2023-02-01T09:51:38;4.20;99.90
17968;DHT22;9109;48.050;11.696;2023-02-01T09:54:44;4.20;99.90
17968;DHT22;9109;48.050;11.696;2023-02-01T09:57:52;4.20;99.90
17968;DHT22;9109;48.050;11.696;2023-02-01T10:00:57;4.20;99.90
17968;DHT22;9109;48.050;11.696;2023-02-01T10:04:03;4.30;99.90
17968;DHT22;9109;48.050;11.696;2023-02-01T10:07:17;4.30;99.90
17968;DHT22;9109;48.050;11.696;2023-02-01T10:10:29;4.30;99.90
17968;DHT22;9109;48.050;11.696;2023-02-01T10:13:41;4.30;99.90
17968;DHT22;9109;48.050;11.696;2023-02-01T10:16:51;4.30;99.90
17968;DHT22;9109;48.050;11.696;2023-02-01T10:20:06;4.30;99.90
17968;DHT22;9109;48.050;11.696;2023-02-01T10:23:20;4.30;99.90
17968;DHT22;9109;48.050;11.696;2023-02-01T10:26:32;4.30;99.90
17968;DHT22;9109;48.050;11.696;2023-02-01T10:29:37;4.40;99.90
17968;DHT22;9109;48.050;11.696;2023-02-01T10:32:40;4.40;99.90
17968;DHT22;9109;48.050;11.696;2023-02-01T10:35:44;4.40;99.90
17968;DHT22;9109;48.050;11.696;2023-02-01T10:38:46;4.30;99.90
17968;DHT22;9109;48.050;11.696;2023-02-01T10:41:50;4.40;99.90
17968;DHT22;9109;48.050;11.696;2023-02-01T10:44:55;4.30;99.90
17968;DHT22;9109;48.050;11.696;2023-02-01T10:48:00;4.40;99.90
17968;DHT22;9109;48.050;11.696;2023-02-01T10:51:07;4.40;99.90
17968;DHT22;9109;48.050;11.696;2023-02-01T10:54:17;4.40;99.90
17968;DHT22;9109;48.050;11.696;2023-02-01T10:57:24;4.40;99.90
17968;DHT22;9109;48.050;11.696;2023-02-01T11:00:41;4.40;99.90
17968;DHT22;9109;48.050;11.696;2023-02-01T11:03:45;4.40;99.90
17968;DHT22;9109;48.050;11.696;2023-02-01T11:07:05;4.40;99.90
17968;DHT22;9109;48.050;11.696;2023-02-01T11:10:35;4.40;99.90
17968;DHT22;9109;48.050;11.696;2023-02-01T11:13:40;4.40;99.90
17968;DHT22;9109;48.050;11.696;2023-02-01T11:16:47;4.40;99.90
17968;DHT22;9109;48.050;11.696;2023-02-01T11:19:56;4.30;99.90
17968;DHT22;9109;48.050;11.696;2023-02-01T11:22:59;4.20;99.90
17968;DHT22;9109;48.050;11.696;2023-02-01T11:26:09;4.30;99.90
17968;DHT22;9109;48.050;11.696;2023-02-01T11:29:16;4.20;99.90
17968;DHT22;9109;48.050;11.696;2023-02-01T11:32:22;4.20;99.90
17968;DHT22;9109;48.050;11.696;2023-02-01T11:35:27;4.20;99.90
17968;DHT22;9109;48.050;11.696;2023-02-01T11:38:31;4.20;99.90
17968;DHT22;9109;48.050;11.696;2023-02-01T11:41:34;4.20;99.90
17968;DHT22;9109;48.050;11.696;2023-02-01T11:44:39;4.20;99.90
17968;DHT22;9109;48.050;11.696;2023-02-01T11:47:41;4.20;99.90
17968;DHT22;9109;48.050;11.696;2023-02-01T11:50:48;4.20;99.90
17968;DHT22;9109;48.050;11.696;2023-02-01T11:54:14;4.20;99.90
17968;DHT22;9109;48.050;11.696;2023-02-01T11:57:32;4.20;99.90
17968;DHT22;9109;48.050;11.696;2023-02-01T12:00:48;4.20;99.90
17968;DHT22;9109;48.050;11.696;2023-02-01T12:04:19;4.10;99.90
17968;DHT22;9109;48.050;11.696;2023-02-01T12:07:30;4.10;99.90
17968;DHT22;9109;48.050;11.696;2023-02-01T12:10:43;4.10;99.90
17968;DHT22;9109;48.050;11.696;2023-02-01T12:14:01;4.00;99.90
17968;DHT22;9109;48.050;11.696;2023-02-01T12:17:26;4.10;99.90
17968;DHT22;9109;48.050;11.696;2023-02-01T12:20:51;4.10;99.90
17968;DHT22;9109;48.050;11.696;2023-02-01T12:24:15;4.00;99.90
17968;DHT22;9109;48.050;11.696;2023-02-01T12:27:42;4.00;99.90
17968;DHT22;9109;48.050;11.696;2023-02-01T12:31:07;4.10;99.90
17968;DHT22;9109;48.050;11.696;2023-02-01T12:38:05;4.10;99.90
17968;DHT22;9109;48.050;11.696;2023-02-01T12:41:24;4.10;99.90
17968;DHT22;9109;48.050;11.696;2023-02-01T12:44:37;4.10;99.90
17968;DHT22;9109;48.050;11.696;2023-02-01T12:47:44;4.10;99.90
17968;DHT22;9109;48.050;11.696;2023-02-01T12:50:50;4.10;99.90
17968;DHT22;9109;48.050;11.696;2023-02-01T12:53:56;4.00;99.90
17968;DHT22;9109;48.050;11.696;2023-02-01T12:57:04;4.00;99.90
17968;DHT22;9109;48.050;11.696;2023-02-01T13:00:17;4.00;99.90
17968;DHT22;9109;48.050;11.696;2023-02-01T13:03:32;4.00;99.90
17968;DHT22;9109;48.050;11.696;2023-02-01T13:06:39;4.00;99.90
17968;DHT22;9109;48.050;11.696;2023-02-01T13:09:47;4.00;99.90
17968;DHT22;9109;48.050;11.696;2023-02-01T13:12:56;4.00;99.90
17968;DHT22;9109;48.050;11.696;2023-02-01T13:16:06;4.00;99.90
17968;DHT22;9109;48.050;11.696;2023-02-01T13:19:17;4.10;99.90
17968;DHT22;9109;48.050;11.696;2023-02-01T13:22:25;4.20;99.90
17968;DHT22;9109;48.050;11.696;2023-02-01T13:25:33;4.10;99.90
17968;DHT22;9109;48.050;11.696;2023-02-01T13:28:41;4.10;99.90
17968;DHT22;9109;48.050;11.696;2023-02-01T13:35:35;4.20;99.90
17968;DHT22;9109;48.050;11.696;2023-02-01T13:42:28;4.30;99.90
17968;DHT22;9109;48.050;11.696;2023-02-01T13:45:34;4.30;99.90
17968;DHT22;9109;48.050;11.696;2023-02-01T13:48:41;4.30;99.90
17968;DHT22;9109;48.050;11.696;2023-02-01T13:51:50;4.30;99.90
17968;DHT22;9109;48.050;11.696;2023-02-01T13:55:02;4.30;99.90
17968;DHT22;9109;48.050;11.696;2023-02-01T13:58:14;4.30;99.90
17968;DHT22;9109;48.050;11.696;2023-02-01T14:01:44;4.30;99.90
17968;DHT22;9109;48.050;11.696;2023-02-01T14:04:48;4.30;99.90
17968;DHT22;9109;48.050;11.696;2023-02-01T14:08:08;4.30;99.90
17968;DHT22;9109;48.050;11.696;2023-02-01T14:14:51;4.40;99.90
17968;DHT22;9109;48.050;11.696;2023-02-01T14:17:53;4.40;99.90
17968;DHT22;9109;48.050;11.696;2023-02-01T14:21:13;4.30;99.90
17968;DHT22;9109;48.050;11.696;2023-02-01T14:24:25;4.20;99.90
17968;DHT22;9109;48.050;11.696;2023-02-01T14:27:29;4.20;99.90
17968;DHT22;9109;48.050;11.696;2023-02-01T14:30:35;4.20;99.90
17968;DHT22;9109;48.050;11.696;2023-02-01T14:33:41;4.10;99.90
17968;DHT22;9109;48.050;11.696;2023-02-01T14:36:49;4.20;99.90
17968;DHT22;9109;48.050;11.696;2023-02-01T14:39:57;4.20;99.90
17968;DHT22;9109;48.050;11.696;2023-02-01T14:47:09;4.20;99.90
17968;DHT22;9109;48.050;11.696;2023-02-01T14:50:32;4.20;99.90
17968;DHT22;9109;48.050;11.696;2023-02-01T14:53:37;4.30;99.90
17968;DHT22;9109;48.050;11.696;2023-02-01T14:56:39;4.30;99.90
17968;DHT22;9109;48.050;11.696;2023-02-01T14:59:42;4.20;99.90
17968;DHT22;9109;48.050;11.696;2023-02-01T15:02:48;4.20;99.90
17968;DHT22;9109;48.050;11.696;2023-02-01T15:05:55;4.20;99.90
17968;DHT22;9109;48.050;11.696;2023-02-01T15:08:59;4.20;99.90
17968;DHT22;9109;48.050;11.696;2023-02-01T15:12:04;4.10;99.90
17968;DHT22;9109;48.050;11.696;2023-02-01T15:15:12;4.10;99.90
17968;DHT22;9109;48.050;11.696;2023-02-01T15:18:17;4.00;99.90
17968;DHT22;9109;48.050;11.696;2023-02-01T15:21:20;4.00;99.90
17968;DHT22;9109;48.050;11.696;2023-02-01T15:24:24;4.00;99.90
17968;DHT22;9109;48.050;11.696;2023-02-01T15:27:28;3.90;99.90
17968;DHT22;9109;48.050;11.696;2023-02-01T15:30:33;3.90;99.90
17968;DHT22;9109;48.050;11.696;2023-02-01T15:33:37;3.90;99.90
17968;DHT22;9109;48.050;11.696;2023-02-01T15:36:39;3.80;99.90
17968;DHT22;9109;48.050;11.696;2023-02-01T15:40:03;3.80;99.90
17968;DHT22;9109;48.050;11.696;2023-02-01T15:43:12;3.70;99.90
17968;DHT22;9109;48.050;11.696;2023-02-01T15:46:17;3.70;99.90
17968;DHT22;9109;48.050;11.696;2023-02-01T15:49:26;3.80;99.90
17968;DHT22;9109;48.050;11.696;2023-02-01T15:52:37;3.70;99.90
17968;DHT22;9109;48.050;11.696;2023-02-01T15:55:41;3.70;99.90
17968;DHT22;9109;48.050;11.696;2023-02-01T15:58:47;3.70;99.90
17968;DHT22;9109;48.050;11.696;2023-02-01T16:01:50;3.60;99.90
17968;DHT22;9109;48.050;11.696;2023-02-01T16:04:53;3.60;99.90
17968;DHT22;9109;48.050;11.696;2023-02-01T16:07:59;3.60;99.90
17968;DHT22;9109;48.050;11.696;2023-02-01T16:11:40;3.50;99.90
17968;DHT22;9109;48.050;11.696;2023-02-01T16:14:42;3.50;99.90
17968;DHT22;9109;48.050;11.696;2023-02-01T16:17:44;3.50;99.90
17968;DHT22;9109;48.050;11.696;2023-02-01T16:20:47;3.50;99.90
17968;DHT22;9109;48.050;11.696;2023-02-01T16:23:50;3.50;99.90
17968;DHT22;9109;48.050;11.696;2023-02-01T16:26:52;3.50;99.90
17968;DHT22;9109;48.050;11.696;2023-02-01T16:29:54;3.60;99.90
17968;DHT22;9109;48.050;11.696;2023-02-01T16:32:58;3.60;99.90
17968;DHT22;9109;48.050;11.696;2023-02-01T16:36:04;3.60;99.90
17968;DHT22;9109;48.050;11.696;2023-02-01T16:39:08;3.70;99.90
17968;DHT22;9109;48.050;11.696;2023-02-01T16:42:11;3.70;99.90
17968;DHT22;9109;48.050;11.696;2023-02-01T16:45:14;3.70;99.90
17968;DHT22;9109;48.050;11.696;2023-02-01T16:48:20;3.70;99.90
17968;DHT22;9109;48.050;11.696;2023-02-01T16:51:25;3.70;99.90
17968;DHT22;9109;48.050;11.696;2023-02-01T16:54:28;3.70;99.90
17968;DHT22;9109;48.050;11.696;2023-02-01T16:57:30;3.70;99.90
17968;DHT22;9109;48.050;11.696;2023-02-01T17:00:32;3.70;99.90
17968;DHT22;9109;48.050;11.696;2023-02-01T17:03:37;3.80;99.90
17968;DHT22;9109;48.050;11.696;2023-02-01T17:06:41;3.80;99.90
17968;DHT22;9109;48.050;11.696;2023-02-01T17:09:43;3.80;99.90
17968;DHT22;9109;48.050;11.696;2023-02-01T17:12:44;3.70;99.90
17968;DHT22;9109;48.050;11.696;2023-02-01T17:15:49;3.80;99.90
17968;DHT22;9109;48.050;11.696;2023-02-01T17:18:56;3.80;99.90
17968;DHT22;9109;48.050;11.696;2023-02-01T17:21:59;3.90;99.90
17968;DHT22;9109;48.050;11.696;2023-02-01T17:25:02;3.90;99.90
17968;DHT22;9109;48.050;11.696;2023-02-01T17:28:06;3.90;99.90
17968;DHT22;9109;48.050;11.696;2023-02-01T17:31:11;3.90;99.90
17968;DHT22;9109;48.050;11.696;2023-02-01T17:34:14;3.90;99.90
17968;DHT22;9109;48.050;11.696;2023-02-01T17:37:23;3.90;99.90
17968;DHT22;9109;48.050;11.696;2023-02-01T17:40:26;3.90;99.90
17968;DHT22;9109;48.050;11.696;2023-02-01T17:43:29;3.90;99.90
17968;DHT22;9109;48.050;11.696;2023-02-01T17:46:31;3.90;99.90
17968;DHT22;9109;48.050;11.696;2023-02-01T17:49:33;3.90;99.90
17968;DHT22;9109;48.050;11.696;2023-02-01T17:52:37;3.90;99.90
17968;DHT22;9109;48.050;11.696;2023-02-01T17:55:41;3.80;99.90
17968;DHT22;9109;48.050;11.696;2023-02-01T17:58:44;3.80;99.90
17968;DHT22;9109;48.050;11.696;2023-02-01T18:01:46;3.80;99.90
17968;DHT22;9109;48.050;11.696;2023-02-01T18:04:48;3.80;99.90
17968;DHT22;9109;48.050;11.696;2023-02-01T18:07:52;3.80;99.90
17968;DHT22;9109;48.050;11.696;2023-02-01T18:10:56;3.90;99.90
17968;DHT22;9109;48.050;11.696;2023-02-01T18:14:00;3.80;99.90
17968;DHT22;9109;48.050;11.696;2023-02-01T18:17:02;3.90;99.90
17968;DHT22;9109;48.050;11.696;2023-02-01T18:20:04;3.90;99.90
17968;DHT22;9109;48.050;11.696;2023-02-01T18:23:13;3.90;99.90
17968;DHT22;9109;48.050;11.696;2023-02-01T18:26:17;3.90;99.90
17968;DHT22;9109;48.050;11.696;2023-02-01T18:29:20;3.90;99.90
17968;DHT22;9109;48.050;11.696;2023-02-01T18:32:23;3.90;99.90
17968;DHT22;9109;48.050;11.696;2023-02-01T18:35:26;4.00;99.90
17968;DHT22;9109;48.050;11.696;2023-02-01T18:38:30;3.90;99.90
17968;DHT22;9109;48.050;11.696;2023-02-01T18:41:32;3.90;99.90
17968;DHT22;9109;48.050;11.696;2023-02-01T18:44:34;3.90;99.90
17968;DHT22;9109;48.050;11.696;2023-02-01T18:47:36;4.00;99.90
17968;DHT22;9109;48.050;11.696;2023-02-01T18:50:39;4.00;99.90
17968;DHT22;9109;48.050;11.696;2023-02-01T18:53:43;3.90;99.90
17968;DHT22;9109;48.050;11.696;2023-02-01T18:56:45;3.90;99.90
17968;DHT22;9109;48.050;11.696;2023-02-01T18:59:47;3.90;99.90
17968;DHT22;9109;48.050;11.696;2023-02-01T19:02:49;4.00;99.90
17968;DHT22;9109;48.050;11.696;2023-02-01T19:05:51;4.10;99.90
17968;DHT22;9109;48.050;11.696;2023-02-01T19:08:54;4.10;99.90
17968;DHT22;9109;48.050;11.696;2023-02-01T19:11:56;4.10;99.90
17968;DHT22;9109;48.050;11.696;2023-02-01T19:14:57;4.20;99.90
17968;DHT22;9109;48.050;11.696;2023-02-01T19:17:59;4.10;99.90
17968;DHT22;9109;48.050;11.696;2023-02-01T19:21:02;4.20;99.90
17968;DHT22;9109;48.050;11.696;2023-02-01T19:24:06;4.20;99.90
17968;DHT22;9109;48.050;11.696;2023-02-01T19:27:10;4.20;99.90
17968;DHT22;9109;48.050;11.696;2023-02-01T19:30:12;4.20;99.90
17968;DHT22;9109;48.050;11.696;2023-02-01T19:33:15;4.20;99.90
17968;DHT22;9109;48.050;11.696;2023-02-01T19:36:17;4.20;99.90
17968;DHT22;9109;48.050;11.696;2023-02-01T19:39:20;4.20;99.90
17968;DHT22;9109;48.050;11.696;2023-02-01T19:42:24;4.20;99.90
17968;DHT22;9109;48.050;11.696;2023-02-01T19:45:26;4.30;99.90
17968;DHT22;9109;48.050;11.696;2023-02-01T19:48:28;4.20;99.90
17968;DHT22;9109;48.050;11.696;2023-02-01T19:51:30;4.20;99.90
17968;DHT22;9109;48.050;11.696;2023-02-01T19:54:33;4.20;99.90
17968;DHT22;9109;48.050;11.696;2023-02-01T19:57:35;4.20;99.90
17968;DHT22;9109;48.050;11.696;2023-02-01T20:00:37;4.20;99.90
17968;DHT22;9109;48.050;11.696;2023-02-01T20:03:39;4.30;99.90
17968;DHT22;9109;48.050;11.696;2023-02-01T20:06:42;4.20;99.90
17968;DHT22;9109;48.050;11.696;2023-02-01T20:09:50;4.20;99.90
17968;DHT22;9109;48.050;11.696;2023-02-01T20:12:52;4.10;99.90
17968;DHT22;9109;48.050;11.696;2023-02-01T20:15:57;4.20;99.90
17968;DHT22;9109;48.050;11.696;2023-02-01T20:19:00;4.20;99.90
17968;DHT22;9109;48.050;11.696;2023-02-01T20:22:01;4.20;99.90
17968;DHT22;9109;48.050;11.696;2023-02-01T20:25:05;4.20;99.90
17968;DHT22;9109;48.050;11.696;2023-02-01T20:28:11;4.20;99.90
17968;DHT22;9109;48.050;11.696;2023-02-01T20:31:13;4.30;99.90
17968;DHT22;9109;48.050;11.696;2023-02-01T20:34:15;4.20;99.90
17968;DHT22;9109;48.050;11.696;2023-02-01T20:37:17;4.20;99.90
17968;DHT22;9109;48.050;11.696;2023-02-01T20:40:21;4.20;99.90
17968;DHT22;9109;48.050;11.696;2023-02-01T20:43:23;4.30;99.90
17968;DHT22;9109;48.050;11.696;2023-02-01T20:46:25;4.20;99.90
17968;DHT22;9109;48.050;11.696;2023-02-01T20:49:27;4.20;99.90
17968;DHT22;9109;48.050;11.696;2023-02-01T20:52:29;4.20;99.90
17968;DHT22;9109;48.050;11.696;2023-02-01T20:55:32;4.20;99.90
17968;DHT22;9109;48.050;11.696;2023-02-01T20:58:34;4.20;99.90
17968;DHT22;9109;48.050;11.696;2023-02-01T21:01:35;4.20;99.90
17968;DHT22;9109;48.050;11.696;2023-02-01T21:04:52;4.20;99.90
17968;DHT22;9109;48.050;11.696;2023-02-01T21:07:54;4.20;99.90
17968;DHT22;9109;48.050;11.696;2023-02-01T21:10:58;4.20;99.90
17968;DHT22;9109;48.050;11.696;2023-02-01T21:14:00;4.20;99.90
17968;DHT22;9109;48.050;11.696;2023-02-01T21:17:04;4.20;99.90
17968;DHT22;9109;48.050;11.696;2023-02-01T21:20:07;4.20;99.90
17968;DHT22;9109;48.050;11.696;2023-02-01T21:23:09;4.10;99.90
17968;DHT22;9109;48.050;11.696;2023-02-01T21:26:14;4.20;99.90
17968;DHT22;9109;48.050;11.696;2023-02-01T21:29:16;4.10;99.90
17968;DHT22;9109;48.050;11.696;2023-02-01T21:32:18;4.00;99.90
17968;DHT22;9109;48.050;11.696;2023-02-01T21:35:21;4.00;99.90
17968;DHT22;9109;48.050;11.696;2023-02-01T21:38:23;4.00;99.90
17968;DHT22;9109;48.050;11.696;2023-02-01T21:41:29;4.00;99.90
17968;DHT22;9109;48.050;11.696;2023-02-01T21:44:49;4.00;99.90
17968;DHT22;9109;48.050;11.696;2023-02-01T21:47:51;4.00;99.90
17968;DHT22;9109;48.050;11.696;2023-02-01T21:50:55;4.00;99.90
17968;DHT22;9109;48.050;11.696;2023-02-01T21:54:02;4.00;99.90
17968;DHT22;9109;48.050;11.696;2023-02-01T21:57:12;4.00;99.90
17968;DHT22;9109;48.050;11.696;2023-02-01T22:00:42;4.00;99.90
17968;DHT22;9109;48.050;11.696;2023-02-01T22:04:00;4.00;99.90
17968;DHT22;9109;48.050;11.696;2023-02-01T22:07:06;4.00;99.90
17968;DHT22;9109;48.050;11.696;2023-02-01T22:10:11;4.00;99.90
17968;DHT22;9109;48.050;11.696;2023-02-01T22:13:17;4.00;99.90
17968;DHT22;9109;48.050;11.696;2023-02-01T22:16:28;4.00;99.90
17968;DHT22;9109;48.050;11.696;2023-02-01T22:19:34;4.00;99.90
17968;DHT22;9109;48.050;11.696;2023-02-01T22:22:49;4.00;99.90
17968;DHT22;9109;48.050;11.696;2023-02-01T22:25:58;4.10;99.90
17968;DHT22;9109;48.050;11.696;2023-02-01T22:29:02;4.10;99.90
17968;DHT22;9109;48.050;11.696;2023-02-01T22:32:04;4.00;99.90
17968;DHT22;9109;48.050;11.696;2023-02-01T22:35:07;4.00;99.90
17968;DHT22;9109;48.050;11.696;2023-02-01T22:38:09;4.00;99.90
17968;DHT22;9109;48.050;11.696;2023-02-01T22:41:11;3.90;99.90
17968;DHT22;9109;48.050;11.696;2023-02-01T22:44:15;3.90;99.90
17968;DHT22;9109;48.050;11.696;2023-02-01T22:47:20;4.00;99.90
17968;DHT22;9109;48.050;11.696;2023-02-01T22:50:22;3.90;99.90
17968;DHT22;9109;48.050;11.696;2023-02-01T22:53:25;4.00;99.90
17968;DHT22;9109;48.050;11.696;2023-02-01T22:56:29;4.00;99.90
17968;DHT22;9109;48.050;11.696;2023-02-01T22:59:32;4.00;99.90
17968;DHT22;9109;48.050;11.696;2023-02-01T23:02:34;3.90;99.90
17968;DHT22;9109;48.050;11.696;2023-02-01T23:05:36;3.90;99.90
17968;DHT22;9109;48.050;11.696;2023-02-01T23:08:39;3.80;99.90
17968;DHT22;9109;48.050;11.696;2023-02-01T23:11:41;3.80;99.90
17968;DHT22;9109;48.050;11.696;2023-02-01T23:14:44;3.70;99.90
17968;DHT22;9109;48.050;11.696;2023-02-01T23:18:00;3.80;99.90
17968;DHT22;9109;48.050;11.696;2023-02-01T23:21:04;3.80;99.90
17968;DHT22;9109;48.050;11.696;2023-02-01T23:24:07;3.70;99.90
17968;DHT22;9109;48.050;11.696;2023-02-01T23:27:10;3.80;99.90
17968;DHT22;9109;48.050;11.696;2023-02-01T23:30:13;3.80;99.90
17968;DHT22;9109;48.050;11.696;2023-02-01T23:33:15;3.70;99.90
17968;DHT22;9109;48.050;11.696;2023-02-01T23:36:17;3.70;99.90
17968;DHT22;9109;48.050;11.696;2023-02-01T23:39:19;3.70;99.90
17968;DHT22;9109;48.050;11.696;2023-02-01T23:42:21;3.80;99.90
17968;DHT22;9109;48.050;11.696;2023-02-01T23:45:24;3.80;99.90
17968;DHT22;9109;48.050;11.696;2023-02-01T23:48:27;3.80;99.90
17968;DHT22;9109;48.050;11.696;2023-02-01T23:51:29;3.90;99.90
17968;DHT22;9109;48.050;11.696;2023-02-01T23:54:31;3.90;99.90
17968;DHT22;9109;48.050;11.696;2023-02-01T23:57:33;3.90;99.90
